sensor_id;sensor_type;location;lat;lon;timestamp;pressure;altitude;pressure_sealevel;temperature;humidity
57442;BME280;43284;47.042;15.498;2023-08-01T00:00:03;96499.25;;;17.05;100.00
57442;BME280;43284;47.042;15.498;2023-08-01T00:02:31;96501.59;;;17.08;100.00
57442;BME280;43284;47.042;15.498;2023-08-01T00:04:56;96490.84;;;17.00;100.00
57442;BME280;43284;47.042;15.498;2023-08-01T00:07:22;96493.88;;;16.96;100.00
57442;BME280;43284;47.042;15.498;2023-08-01T00:09:47;96490.66;;;16.92;100.00
57442;BME280;43284;47.042;15.498;2023-08-01T00:12:14;96492.44;;;16.82;100.00
57442;BME280;43284;47.042;15.498;2023-08-01T00:14:39;96491.22;;;16.75;100.00
57442;BME280;43284;47.042;15.498;2023-08-01T00:17:05;96488.59;;;16.75;100.00
57442;BME280;43284;47.042;15.498;2023-08-01T00:19:31;96479.13;;;16.72;100.00
57442;BME280;43284;47.042;15.498;2023-08-01T00:21:56;96470.69;;;16.78;100.00
57442;BME280;43284;47.042;15.498;2023-08-01T00:24:22;96467.09;;;16.79;100.00
57442;BME280;43284;47.042;15.498;2023-08-01T00:26:47;96467.81;;;16.81;100.00
57442;BME280;43284;47.042;15.498;2023-08-01T00:29:13;96465.41;;;16.78;100.00
57442;BME280;43284;47.042;15.498;2023-08-01T00:31:39;96462.53;;;16.60;100.00
57442;BME280;43284;47.042;15.498;2023-08-01T00:34:04;96473.59;;;16.54;100.00
57442;BME280;43284;47.042;15.498;2023-08-01T00:36:30;96469.31;;;16.53;100.00
57442;BME280;43284;47.042;15.498;2023-08-01T00:38:55;96466.47;;;16.45;100.00
57442;BME280;43284;47.042;15.498;2023-08-01T00:41:21;96465.03;;;16.41;100.00
57442;BME280;43284;47.042;15.498;2023-08-01T00:43:46;96466.00;;;16.40;100.00
57442;BME280;43284;47.042;15.498;2023-08-01T00:46:12;96465.16;;;16.39;100.00
57442;BME280;43284;47.042;15.498;2023-08-01T00:48:38;96461.69;;;16.39;100.00
57442;BME280;43284;47.042;15.498;2023-08-01T00:51:05;96452.13;;;16.38;100.00
57442;BME280;43284;47.042;15.498;2023-08-01T00:53:31;96446.56;;;16.41;100.00
57442;BME280;43284;47.042;15.498;2023-08-01T00:55:58;96443.28;;;16.27;100.00
57442;BME280;43284;47.042;15.498;2023-08-01T00:58:24;96440.53;;;16.29;100.00
57442;BME280;43284;47.042;15.498;2023-08-01T01:00:50;96438.41;;;16.23;100.00
57442;BME280;43284;47.042;15.498;2023-08-01T01:03:16;96436.16;;;16.18;100.00
57442;BME280;43284;47.042;15.498;2023-08-01T01:05:53;96430.00;;;16.18;100.00
57442;BME280;43284;47.042;15.498;2023-08-01T01:08:21;96430.88;;;16.18;100.00
57442;BME280;43284;47.042;15.498;2023-08-01T01:10:47;96420.16;;;16.20;100.00
57442;BME280;43284;47.042;15.498;2023-08-01T01:13:12;96421.09;;;16.30;100.00
57442;BME280;43284;47.042;15.498;2023-08-01T01:15:38;96416.00;;;16.38;100.00
57442;BME280;43284;47.042;15.498;2023-08-01T01:18:04;96421.53;;;16.35;100.00
57442;BME280;43284;47.042;15.498;2023-08-01T01:20:33;96406.75;;;16.23;100.00
57442;BME280;43284;47.042;15.498;2023-08-01T01:23:00;96407.84;;;16.20;100.00
57442;BME280;43284;47.042;15.498;2023-08-01T01:25:27;96408.09;;;16.17;100.00
57442;BME280;43284;47.042;15.498;2023-08-01T01:27:54;96407.59;;;16.23;100.00
57442;BME280;43284;47.042;15.498;2023-08-01T01:30:23;96399.06;;;16.20;100.00
57442;BME280;43284;47.042;15.498;2023-08-01T01:32:49;96397.03;;;16.23;100.00
57442;BME280;43284;47.042;15.498;2023-08-01T01:35:14;96393.94;;;16.18;100.00
57442;BME280;43284;47.042;15.498;2023-08-01T01:37:40;96388.09;;;16.15;100.00
57442;BME280;43284;47.042;15.498;2023-08-01T01:40:06;96381.41;;;16.11;100.00
57442;BME280;43284;47.042;15.498;2023-08-01T01:42:32;96376.13;;;16.11;100.00
57442;BME280;43284;47.042;15.498;2023-08-01T01:44:57;96369.31;;;16.08;100.00
57442;BME280;43284;47.042;15.498;2023-08-01T01:47:23;96362.50;;;16.05;100.00
57442;BME280;43284;47.042;15.498;2023-08-01T01:49:48;96365.53;;;16.01;100.00
57442;BME280;43284;47.042;15.498;2023-08-01T01:52:14;96364.94;;;15.97;100.00
57442;BME280;43284;47.042;15.498;2023-08-01T01:54:39;96369.03;;;15.90;100.00
57442;BME280;43284;47.042;15.498;2023-08-01T01:57:05;96374.38;;;15.79;100.00
57442;BME280;43284;47.042;15.498;2023-08-01T01:59:31;96372.13;;;15.74;100.00
57442;BME280;43284;47.042;15.498;2023-08-01T02:01:56;96371.13;;;15.75;100.00
57442;BME280;43284;47.042;15.498;2023-08-01T02:04:22;96367.78;;;15.73;100.00
57442;BME280;43284;47.042;15.498;2023-08-01T02:06:47;96357.59;;;15.69;100.00
57442;BME280;43284;47.042;15.498;2023-08-01T02:09:13;96355.91;;;15.68;100.00
57442;BME280;43284;47.042;15.498;2023-08-01T02:11:39;96348.50;;;15.73;100.00
57442;BME280;43284;47.042;15.498;2023-08-01T02:14:04;96349.69;;;15.69;100.00
57442;BME280;43284;47.042;15.498;2023-08-01T02:16:30;96354.38;;;15.65;100.00
57442;BME280;43284;47.042;15.498;2023-08-01T02:18:56;96363.97;;;15.66;100.00
57442;BME280;43284;47.042;15.498;2023-08-01T02:21:21;96359.78;;;15.63;100.00
57442;BME280;43284;47.042;15.498;2023-08-01T02:23:47;96357.97;;;15.64;100.00
57442;BME280;43284;47.042;15.498;2023-08-01T02:26:12;96353.41;;;15.66;100.00
57442;BME280;43284;47.042;15.498;2023-08-01T02:28:38;96346.59;;;15.75;100.00
57442;BME280;43284;47.042;15.498;2023-08-01T02:31:03;96349.28;;;15.84;100.00
57442;BME280;43284;47.042;15.498;2023-08-01T02:33:29;96352.03;;;15.83;100.00
57442;BME280;43284;47.042;15.498;2023-08-01T02:35:54;96351.72;;;15.76;100.00
57442;BME280;43284;47.042;15.498;2023-08-01T02:38:20;96341.56;;;15.72;100.00
57442;BME280;43284;47.042;15.498;2023-08-01T02:40:45;96340.09;;;15.68;100.00
57442;BME280;43284;47.042;15.498;2023-08-01T02:43:11;96338.31;;;15.68;100.00
57442;BME280;43284;47.042;15.498;2023-08-01T02:45:36;96337.34;;;15.69;100.00
57442;BME280;43284;47.042;15.498;2023-08-01T02:48:02;96332.19;;;15.68;100.00
57442;BME280;43284;47.042;15.498;2023-08-01T02:50:28;96334.50;;;15.72;100.00
57442;BME280;43284;47.042;15.498;2023-08-01T02:52:53;96330.00;;;15.84;100.00
57442;BME280;43284;47.042;15.498;2023-08-01T02:55:19;96326.41;;;15.85;100.00
57442;BME280;43284;47.042;15.498;2023-08-01T02:57:44;96328.22;;;15.84;100.00
57442;BME280;43284;47.042;15.498;2023-08-01T03:00:10;96325.25;;;15.78;100.00
57442;BME280;43284;47.042;15.498;2023-08-01T03:02:38;96318.69;;;15.72;100.00
57442;BME280;43284;47.042;15.498;2023-08-01T03:05:06;96313.28;;;15.74;100.00
57442;BME280;43284;47.042;15.498;2023-08-01T03:07:33;96309.72;;;15.63;100.00
57442;BME280;43284;47.042;15.498;2023-08-01T03:09:58;96308.31;;;15.59;100.00
57442;BME280;43284;47.042;15.498;2023-08-01T03:12:24;96305.06;;;15.56;100.00
57442;BME280;43284;47.042;15.498;2023-08-01T03:14:49;96300.63;;;15.56;100.00
57442;BME280;43284;47.042;15.498;2023-08-01T03:17:15;96295.25;;;15.58;100.00
57442;BME280;43284;47.042;15.498;2023-08-01T03:19:41;96294.81;;;15.53;100.00
57442;BME280;43284;47.042;15.498;2023-08-01T03:22:07;96284.66;;;15.48;100.00
57442;BME280;43284;47.042;15.498;2023-08-01T03:24:33;96286.03;;;15.52;100.00
57442;BME280;43284;47.042;15.498;2023-08-01T03:26:58;96283.78;;;15.48;100.00
57442;BME280;43284;47.042;15.498;2023-08-01T03:29:24;96278.97;;;15.32;100.00
57442;BME280;43284;47.042;15.498;2023-08-01T03:31:49;96280.88;;;15.30;100.00
57442;BME280;43284;47.042;15.498;2023-08-01T03:34:15;96278.25;;;15.30;100.00
57442;BME280;43284;47.042;15.498;2023-08-01T03:36:40;96282.81;;;15.28;100.00
57442;BME280;43284;47.042;15.498;2023-08-01T03:39:06;96290.63;;;15.18;100.00
57442;BME280;43284;47.042;15.498;2023-08-01T03:41:32;96289.09;;;15.15;100.00
57442;BME280;43284;47.042;15.498;2023-08-01T03:43:58;96289.91;;;15.16;100.00
57442;BME280;43284;47.042;15.498;2023-08-01T03:46:23;96293.63;;;15.13;100.00
57442;BME280;43284;47.042;15.498;2023-08-01T03:48:49;96299.84;;;15.12;100.00
57442;BME280;43284;47.042;15.498;2023-08-01T03:51:14;96300.94;;;15.10;100.00
57442;BME280;43284;47.042;15.498;2023-08-01T03:53:41;96300.34;;;15.06;100.00
57442;BME280;43284;47.042;15.498;2023-08-01T03:56:07;96305.47;;;15.08;100.00
57442;BME280;43284;47.042;15.498;2023-08-01T03:58:32;96299.28;;;15.09;100.00
57442;BME280;43284;47.042;15.498;2023-08-01T04:00:58;96293.88;;;15.10;100.00
57442;BME280;43284;47.042;15.498;2023-08-01T04:03:24;96295.56;;;15.11;100.00
57442;BME280;43284;47.042;15.498;2023-08-01T04:05:49;96295.28;;;15.14;100.00
57442;BME280;43284;47.042;15.498;2023-08-01T04:08:15;96288.94;;;15.17;100.00
57442;BME280;43284;47.042;15.498;2023-08-01T04:10:40;96279.00;;;15.20;100.00
57442;BME280;43284;47.042;15.498;2023-08-01T04:13:06;96279.72;;;15.22;100.00
57442;BME280;43284;47.042;15.498;2023-08-01T04:15:31;96280.16;;;15.28;100.00
57442;BME280;43284;47.042;15.498;2023-08-01T04:17:57;96282.31;;;15.34;100.00
57442;BME280;43284;47.042;15.498;2023-08-01T04:20:22;96274.72;;;15.40;100.00
57442;BME280;43284;47.042;15.498;2023-08-01T04:22:48;96273.78;;;15.41;100.00
57442;BME280;43284;47.042;15.498;2023-08-01T04:25:13;96280.81;;;15.41;100.00
57442;BME280;43284;47.042;15.498;2023-08-01T04:27:39;96281.81;;;15.40;100.00
57442;BME280;43284;47.042;15.498;2023-08-01T04:30:05;96277.00;;;15.45;100.00
57442;BME280;43284;47.042;15.498;2023-08-01T04:32:31;96273.25;;;15.48;100.00
57442;BME280;43284;47.042;15.498;2023-08-01T04:34:56;96265.69;;;15.54;100.00
57442;BME280;43284;47.042;15.498;2023-08-01T04:37:22;96267.09;;;15.58;100.00
57442;BME280;43284;47.042;15.498;2023-08-01T04:39:48;96267.56;;;15.63;100.00
57442;BME280;43284;47.042;15.498;2023-08-01T04:42:14;96268.97;;;15.68;100.00
57442;BME280;43284;47.042;15.498;2023-08-01T04:44:39;96273.63;;;15.75;100.00
57442;BME280;43284;47.042;15.498;2023-08-01T04:47:05;96274.94;;;15.81;100.00
57442;BME280;43284;47.042;15.498;2023-08-01T04:49:30;96264.84;;;15.86;100.00
57442;BME280;43284;47.042;15.498;2023-08-01T04:51:56;96269.44;;;15.94;100.00
57442;BME280;43284;47.042;15.498;2023-08-01T04:54:21;96269.75;;;16.00;100.00
57442;BME280;43284;47.042;15.498;2023-08-01T04:56:47;96264.25;;;16.03;100.00
57442;BME280;43284;47.042;15.498;2023-08-01T04:59:12;96270.94;;;16.08;100.00
57442;BME280;43284;47.042;15.498;2023-08-01T05:01:38;96266.09;;;16.13;100.00
57442;BME280;43284;47.042;15.498;2023-08-01T05:04:03;96272.38;;;16.21;100.00
57442;BME280;43284;47.042;15.498;2023-08-01T05:06:29;96272.81;;;16.26;100.00
57442;BME280;43284;47.042;15.498;2023-08-01T05:08:54;96272.16;;;16.34;100.00
57442;BME280;43284;47.042;15.498;2023-08-01T05:11:20;96280.38;;;16.41;100.00
57442;BME280;43284;47.042;15.498;2023-08-01T05:13:46;96281.66;;;16.46;100.00
57442;BME280;43284;47.042;15.498;2023-08-01T05:16:11;96278.47;;;16.53;100.00
57442;BME280;43284;47.042;15.498;2023-08-01T05:18:37;96276.28;;;16.58;100.00
57442;BME280;43284;47.042;15.498;2023-08-01T05:21:02;96267.84;;;16.64;100.00
57442;BME280;43284;47.042;15.498;2023-08-01T05:23:28;96267.28;;;16.70;100.00
57442;BME280;43284;47.042;15.498;2023-08-01T05:25:54;96272.16;;;16.75;100.00
57442;BME280;43284;47.042;15.498;2023-08-01T05:28:19;96265.44;;;16.82;100.00
57442;BME280;43284;47.042;15.498;2023-08-01T05:30:45;96264.88;;;16.88;100.00
57442;BME280;43284;47.042;15.498;2023-08-01T05:33:10;96260.84;;;16.94;100.00
57442;BME280;43284;47.042;15.498;2023-08-01T05:35:36;96258.25;;;17.03;100.00
57442;BME280;43284;47.042;15.498;2023-08-01T05:38:01;96255.19;;;17.08;100.00
57442;BME280;43284;47.042;15.498;2023-08-01T05:40:27;96255.59;;;17.13;100.00
57442;BME280;43284;47.042;15.498;2023-08-01T05:42:52;96249.78;;;17.19;100.00
57442;BME280;43284;47.042;15.498;2023-08-01T05:45:18;96246.28;;;17.28;100.00
57442;BME280;43284;47.042;15.498;2023-08-01T05:47:43;96238.78;;;17.34;100.00
57442;BME280;43284;47.042;15.498;2023-08-01T05:50:09;96249.63;;;17.40;100.00
57442;BME280;43284;47.042;15.498;2023-08-01T05:52:35;96237.38;;;17.49;100.00
57442;BME280;43284;47.042;15.498;2023-08-01T05:55:01;96229.59;;;17.57;100.00
57442;BME280;43284;47.042;15.498;2023-08-01T05:57:26;96234.03;;;17.66;100.00
57442;BME280;43284;47.042;15.498;2023-08-01T05:59:52;96224.16;;;17.78;100.00
57442;BME280;43284;47.042;15.498;2023-08-01T06:02:18;96221.81;;;17.85;100.00
57442;BME280;43284;47.042;15.498;2023-08-01T06:04:44;96216.47;;;17.95;100.00
57442;BME280;43284;47.042;15.498;2023-08-01T06:07:09;96215.78;;;18.02;100.00
57442;BME280;43284;47.042;15.498;2023-08-01T06:09:35;96221.84;;;18.12;100.00
57442;BME280;43284;47.042;15.498;2023-08-01T06:12:00;96226.81;;;18.25;100.00
57442;BME280;43284;47.042;15.498;2023-08-01T06:14:26;96222.50;;;18.24;100.00
57442;BME280;43284;47.042;15.498;2023-08-01T06:16:51;96209.84;;;18.28;100.00
57442;BME280;43284;47.042;15.498;2023-08-01T06:19:17;96199.09;;;18.29;100.00
57442;BME280;43284;47.042;15.498;2023-08-01T06:21:42;96202.97;;;18.35;100.00
57442;BME280;43284;47.042;15.498;2023-08-01T06:24:08;96202.22;;;18.43;100.00
57442;BME280;43284;47.042;15.498;2023-08-01T06:26:34;96199.69;;;18.51;100.00
57442;BME280;43284;47.042;15.498;2023-08-01T06:28:59;96204.09;;;18.60;100.00
57442;BME280;43284;47.042;15.498;2023-08-01T06:31:25;96202.91;;;18.72;100.00
57442;BME280;43284;47.042;15.498;2023-08-01T06:33:50;96203.41;;;18.86;100.00
57442;BME280;43284;47.042;15.498;2023-08-01T06:36:16;96193.41;;;18.98;100.00
57442;BME280;43284;47.042;15.498;2023-08-01T06:38:43;96194.56;;;19.13;100.00
57442;BME280;43284;47.042;15.498;2023-08-01T06:41:08;96195.47;;;19.22;100.00
57442;BME280;43284;47.042;15.498;2023-08-01T06:43:34;96192.38;;;19.26;99.66
57442;BME280;43284;47.042;15.498;2023-08-01T06:45:59;96189.66;;;19.36;100.00
57442;BME280;43284;47.042;15.498;2023-08-01T06:48:25;96190.69;;;19.43;98.60
57442;BME280;43284;47.042;15.498;2023-08-01T06:50:50;96201.16;;;19.45;97.42
57442;BME280;43284;47.042;15.498;2023-08-01T06:53:16;96205.66;;;19.52;98.91
57442;BME280;43284;47.042;15.498;2023-08-01T06:55:42;96205.22;;;19.57;100.00
57442;BME280;43284;47.042;15.498;2023-08-01T06:58:07;96222.78;;;19.58;97.61
57442;BME280;43284;47.042;15.498;2023-08-01T07:00:33;96220.00;;;19.60;98.35
57442;BME280;43284;47.042;15.498;2023-08-01T07:02:58;96217.03;;;19.63;98.33
57442;BME280;43284;47.042;15.498;2023-08-01T07:05:25;96216.72;;;19.66;98.19
57442;BME280;43284;47.042;15.498;2023-08-01T07:07:51;96206.38;;;19.72;99.24
57442;BME280;43284;47.042;15.498;2023-08-01T07:10:16;96203.25;;;19.77;97.57
57442;BME280;43284;47.042;15.498;2023-08-01T07:12:42;96207.75;;;19.85;97.46
57442;BME280;43284;47.042;15.498;2023-08-01T07:15:08;96203.97;;;19.87;94.65
57442;BME280;43284;47.042;15.498;2023-08-01T07:17:33;96196.06;;;19.95;95.54
57442;BME280;43284;47.042;15.498;2023-08-01T07:19:59;96200.41;;;20.05;95.59
57442;BME280;43284;47.042;15.498;2023-08-01T07:22:24;96182.16;;;20.02;90.74
57442;BME280;43284;47.042;15.498;2023-08-01T07:24:54;96197.09;;;20.03;91.60
57442;BME280;43284;47.042;15.498;2023-08-01T07:27:20;96194.53;;;20.19;92.70
57442;BME280;43284;47.042;15.498;2023-08-01T07:29:45;96185.31;;;20.31;94.68
57442;BME280;43284;47.042;15.498;2023-08-01T07:32:11;96190.50;;;20.41;93.92
57442;BME280;43284;47.042;15.498;2023-08-01T07:34:36;96186.72;;;20.52;93.48
57442;BME280;43284;47.042;15.498;2023-08-01T07:37:02;96185.94;;;20.60;90.44
57442;BME280;43284;47.042;15.498;2023-08-01T07:39:28;96180.34;;;20.71;88.79
57442;BME280;43284;47.042;15.498;2023-08-01T07:41:55;96172.56;;;20.77;90.10
57442;BME280;43284;47.042;15.498;2023-08-01T07:44:20;96170.75;;;20.86;89.89
57442;BME280;43284;47.042;15.498;2023-08-01T07:46:46;96164.28;;;20.89;88.07
57442;BME280;43284;47.042;15.498;2023-08-01T07:49:11;96168.28;;;20.93;88.41
57442;BME280;43284;47.042;15.498;2023-08-01T07:51:37;96157.81;;;20.99;88.97
57442;BME280;43284;47.042;15.498;2023-08-01T07:54:02;96158.81;;;21.07;90.32
57442;BME280;43284;47.042;15.498;2023-08-01T07:56:28;96150.34;;;21.11;89.15
57442;BME280;43284;47.042;15.498;2023-08-01T07:58:53;96150.34;;;21.19;91.21
57442;BME280;43284;47.042;15.498;2023-08-01T08:01:19;96160.81;;;21.29;91.10
57442;BME280;43284;47.042;15.498;2023-08-01T08:03:44;96164.50;;;21.36;89.80
57442;BME280;43284;47.042;15.498;2023-08-01T08:06:10;96169.16;;;21.43;89.20
57442;BME280;43284;47.042;15.498;2023-08-01T08:08:35;96174.81;;;21.48;88.59
57442;BME280;43284;47.042;15.498;2023-08-01T08:11:02;96167.50;;;21.50;87.81
57442;BME280;43284;47.042;15.498;2023-08-01T08:13:28;96166.00;;;21.55;88.71
57442;BME280;43284;47.042;15.498;2023-08-01T08:15:56;96162.50;;;21.63;89.59
57442;BME280;43284;47.042;15.498;2023-08-01T08:18:23;96163.66;;;21.69;87.66
57442;BME280;43284;47.042;15.498;2023-08-01T08:20:48;96167.31;;;21.76;84.71
57442;BME280;43284;47.042;15.498;2023-08-01T08:23:14;96160.16;;;21.68;85.11
57442;BME280;43284;47.042;15.498;2023-08-01T08:25:40;96144.41;;;21.58;84.60
57442;BME280;43284;47.042;15.498;2023-08-01T08:28:06;96140.88;;;21.66;86.50
57442;BME280;43284;47.042;15.498;2023-08-01T08:30:32;96152.50;;;21.73;87.63
57442;BME280;43284;47.042;15.498;2023-08-01T08:32:58;96159.16;;;21.77;86.50
57442;BME280;43284;47.042;15.498;2023-08-01T08:35:29;96160.47;;;21.73;84.61
57442;BME280;43284;47.042;15.498;2023-08-01T08:37:55;96159.81;;;21.79;87.00
57442;BME280;43284;47.042;15.498;2023-08-01T08:40:20;96169.47;;;21.89;86.99
57442;BME280;43284;47.042;15.498;2023-08-01T08:42:46;96159.13;;;21.94;84.97
57442;BME280;43284;47.042;15.498;2023-08-01T08:45:14;96154.31;;;21.97;85.08
57442;BME280;43284;47.042;15.498;2023-08-01T08:47:44;96150.41;;;22.08;86.81
57442;BME280;43284;47.042;15.498;2023-08-01T08:50:12;96153.72;;;22.18;85.76
57442;BME280;43284;47.042;15.498;2023-08-01T08:52:38;96147.41;;;22.28;85.76
57442;BME280;43284;47.042;15.498;2023-08-01T08:55:04;96158.38;;;22.33;83.43
57442;BME280;43284;47.042;15.498;2023-08-01T08:57:30;96154.00;;;22.40;83.50
57442;BME280;43284;47.042;15.498;2023-08-01T08:59:57;96145.13;;;22.48;83.41
57442;BME280;43284;47.042;15.498;2023-08-01T09:02:23;96138.28;;;22.53;84.02
57442;BME280;43284;47.042;15.498;2023-08-01T09:04:49;96137.78;;;22.58;82.53
57442;BME280;43284;47.042;15.498;2023-08-01T09:07:15;96140.56;;;22.65;81.67
57442;BME280;43284;47.042;15.498;2023-08-01T09:09:43;96153.03;;;22.72;81.77
57442;BME280;43284;47.042;15.498;2023-08-01T09:12:09;96153.81;;;22.81;83.08
57442;BME280;43284;47.042;15.498;2023-08-01T09:14:35;96141.25;;;22.90;82.09
57442;BME280;43284;47.042;15.498;2023-08-01T09:17:10;96133.34;;;23.04;82.87
57442;BME280;43284;47.042;15.498;2023-08-01T09:19:36;96135.78;;;23.14;81.43
57442;BME280;43284;47.042;15.498;2023-08-01T09:22:02;96131.50;;;23.28;80.38
57442;BME280;43284;47.042;15.498;2023-08-01T09:24:27;96127.94;;;23.36;79.06
57442;BME280;43284;47.042;15.498;2023-08-01T09:27:02;96128.88;;;23.43;75.75
57442;BME280;43284;47.042;15.498;2023-08-01T09:29:30;96125.97;;;23.53;77.28
57442;BME280;43284;47.042;15.498;2023-08-01T09:31:57;96128.38;;;23.62;77.19
57442;BME280;43284;47.042;15.498;2023-08-01T09:34:25;96130.50;;;23.67;77.08
57442;BME280;43284;47.042;15.498;2023-08-01T09:36:56;96121.50;;;23.68;76.21
57442;BME280;43284;47.042;15.498;2023-08-01T09:39:22;96120.28;;;23.71;76.43
57442;BME280;43284;47.042;15.498;2023-08-01T09:42:01;96116.59;;;23.72;74.87
57442;BME280;43284;47.042;15.498;2023-08-01T09:44:28;96117.78;;;23.69;74.59
57442;BME280;43284;47.042;15.498;2023-08-01T09:47:02;96113.19;;;23.63;73.77
57442;BME280;43284;47.042;15.498;2023-08-01T09:49:29;96116.50;;;23.65;75.17
57442;BME280;43284;47.042;15.498;2023-08-01T09:51:56;96127.34;;;23.63;77.50
57442;BME280;43284;47.042;15.498;2023-08-01T09:54:22;96124.88;;;23.62;76.23
57442;BME280;43284;47.042;15.498;2023-08-01T09:56:50;96120.38;;;23.62;75.85
57442;BME280;43284;47.042;15.498;2023-08-01T09:59:20;96111.53;;;23.62;77.07
57442;BME280;43284;47.042;15.498;2023-08-01T10:01:48;96113.56;;;23.60;77.33
57442;BME280;43284;47.042;15.498;2023-08-01T10:04:18;96100.22;;;23.60;78.19
57442;BME280;43284;47.042;15.498;2023-08-01T10:06:46;96094.41;;;23.56;76.59
57442;BME280;43284;47.042;15.498;2023-08-01T10:09:12;96096.81;;;23.51;77.18
57442;BME280;43284;47.042;15.498;2023-08-01T10:11:38;96100.47;;;23.50;80.06
57442;BME280;43284;47.042;15.498;2023-08-01T10:14:06;96087.03;;;23.43;79.87
57442;BME280;43284;47.042;15.498;2023-08-01T10:16:32;96079.28;;;23.34;78.86
57442;BME280;43284;47.042;15.498;2023-08-01T10:18:59;96070.91;;;23.37;80.67
57442;BME280;43284;47.042;15.498;2023-08-01T10:21:25;96068.44;;;23.35;83.04
57442;BME280;43284;47.042;15.498;2023-08-01T10:23:53;96065.97;;;23.34;83.94
57442;BME280;43284;47.042;15.498;2023-08-01T10:26:20;96069.72;;;23.39;87.62
57442;BME280;43284;47.042;15.498;2023-08-01T10:28:52;96069.63;;;23.33;87.07
57442;BME280;43284;47.042;15.498;2023-08-01T10:31:18;96072.00;;;23.28;86.28
57442;BME280;43284;47.042;15.498;2023-08-01T10:33:48;96073.38;;;23.23;86.40
57442;BME280;43284;47.042;15.498;2023-08-01T10:38:53;96071.25;;;23.19;87.92
57442;BME280;43284;47.042;15.498;2023-08-01T10:41:29;96075.28;;;23.15;90.23
57442;BME280;43284;47.042;15.498;2023-08-01T10:44:24;96071.31;;;23.11;90.19
57442;BME280;43284;47.042;15.498;2023-08-01T10:52:01;96064.50;;;23.08;90.29
57442;BME280;43284;47.042;15.498;2023-08-01T10:54:26;96065.53;;;23.07;90.08
57442;BME280;43284;47.042;15.498;2023-08-01T10:56:55;96067.06;;;23.01;88.45
57442;BME280;43284;47.042;15.498;2023-08-01T10:59:21;96057.72;;;22.97;89.16
57442;BME280;43284;47.042;15.498;2023-08-01T11:01:58;96045.31;;;22.90;89.53
57442;BME280;43284;47.042;15.498;2023-08-01T11:04:23;96043.38;;;22.83;90.16
57442;BME280;43284;47.042;15.498;2023-08-01T11:06:51;96035.25;;;22.77;91.57
57442;BME280;43284;47.042;15.498;2023-08-01T11:09:22;96034.13;;;22.71;91.81
57442;BME280;43284;47.042;15.498;2023-08-01T11:11:51;96033.47;;;22.69;93.69
57442;BME280;43284;47.042;15.498;2023-08-01T11:14:19;96032.34;;;22.63;93.32
57442;BME280;43284;47.042;15.498;2023-08-01T11:16:46;96035.06;;;22.55;94.52
57442;BME280;43284;47.042;15.498;2023-08-01T11:21:45;96031.47;;;22.48;96.38
57442;BME280;43284;47.042;15.498;2023-08-01T11:24:10;96026.84;;;22.42;97.35
57442;BME280;43284;47.042;15.498;2023-08-01T11:26:40;96013.84;;;22.39;99.80
57442;BME280;43284;47.042;15.498;2023-08-01T11:29:06;96012.75;;;22.33;100.00
57442;BME280;43284;47.042;15.498;2023-08-01T11:31:31;96003.63;;;22.28;100.00
57442;BME280;43284;47.042;15.498;2023-08-01T11:33:58;95998.78;;;22.31;100.00
57442;BME280;43284;47.042;15.498;2023-08-01T11:36:27;96002.91;;;22.34;100.00
57442;BME280;43284;47.042;15.498;2023-08-01T11:38:55;96001.72;;;22.36;100.00
57442;BME280;43284;47.042;15.498;2023-08-01T11:41:21;96000.44;;;22.32;100.00
57442;BME280;43284;47.042;15.498;2023-08-01T11:43:47;95998.63;;;22.33;100.00
57442;BME280;43284;47.042;15.498;2023-08-01T11:46:12;95988.94;;;22.32;100.00
57442;BME280;43284;47.042;15.498;2023-08-01T11:48:38;95992.44;;;22.32;100.00
57442;BME280;43284;47.042;15.498;2023-08-01T11:51:04;95991.94;;;22.37;100.00
57442;BME280;43284;47.042;15.498;2023-08-01T11:53:30;95987.22;;;22.39;100.00
57442;BME280;43284;47.042;15.498;2023-08-01T11:55:57;95985.53;;;22.46;100.00
57442;BME280;43284;47.042;15.498;2023-08-01T12:01:08;95985.22;;;22.41;99.59
57442;BME280;43284;47.042;15.498;2023-08-01T12:03:51;95993.69;;;22.45;100.00
57442;BME280;43284;47.042;15.498;2023-08-01T12:06:22;95995.88;;;22.41;100.00
57442;BME280;43284;47.042;15.498;2023-08-01T12:08:50;95996.34;;;22.45;100.00
57442;BME280;43284;47.042;15.498;2023-08-01T12:11:26;95997.19;;;22.45;100.00
57442;BME280;43284;47.042;15.498;2023-08-01T12:14:07;96000.88;;;22.44;100.00
57442;BME280;43284;47.042;15.498;2023-08-01T12:16:35;95996.53;;;22.43;100.00
57442;BME280;43284;47.042;15.498;2023-08-01T12:19:01;95992.09;;;22.35;100.00
57442;BME280;43284;47.042;15.498;2023-08-01T12:21:26;95985.84;;;22.28;100.00
57442;BME280;43284;47.042;15.498;2023-08-01T12:23:52;95988.03;;;22.16;100.00
57442;BME280;43284;47.042;15.498;2023-08-01T12:26:17;95988.25;;;22.07;100.00
57442;BME280;43284;47.042;15.498;2023-08-01T12:28:43;95981.94;;;21.99;100.00
57442;BME280;43284;47.042;15.498;2023-08-01T12:31:08;95979.69;;;21.88;100.00
57442;BME280;43284;47.042;15.498;2023-08-01T12:33:34;95985.56;;;21.75;100.00
57442;BME280;43284;47.042;15.498;2023-08-01T12:36:00;95989.28;;;21.66;100.00
57442;BME280;43284;47.042;15.498;2023-08-01T12:38:26;95988.66;;;21.56;100.00
57442;BME280;43284;47.042;15.498;2023-08-01T12:40:51;95984.19;;;21.48;100.00
57442;BME280;43284;47.042;15.498;2023-08-01T12:43:17;95992.97;;;21.40;100.00
57442;BME280;43284;47.042;15.498;2023-08-01T12:45:43;96005.50;;;21.32;100.00
57442;BME280;43284;47.042;15.498;2023-08-01T12:48:08;96002.84;;;21.15;100.00
57442;BME280;43284;47.042;15.498;2023-08-01T12:50:34;96016.97;;;21.16;100.00